createdAt,value
2018-08-04T04:17:23.185Z,18.17
2018-08-04T04:37:26.957Z,20.83
2018-08-04T04:57:43.677Z,20.13
2018-08-04T05:17:55.199Z,20.47
2018-08-04T05:38:10.091Z,20.70
2018-08-04T05:58:24.714Z,20.57
2018-08-04T06:18:45.656Z,21.60
2018-08-04T06:38:56.407Z,23.37
2018-08-04T07:19:38.344Z,21.30
2018-08-04T08:20:53.835Z,16.67
2018-08-04T09:22:00.590Z,17.67
2018-08-04T09:42:09.591Z,17.37
2018-08-04T10:02:27.331Z,16.13
2018-08-04T10:22:43.004Z,13.67
2018-08-04T10:42:45.560Z,14.03
2018-08-04T11:02:53.726Z,13.27
2018-08-04T11:22:57.681Z,14.27
2018-08-04T11:43:00.279Z,15.10
2018-08-04T12:03:02.917Z,13.80
2018-08-04T12:23:05.512Z,12.10
2018-08-04T12:43:09.156Z,14.17
2018-08-04T13:03:11.737Z,12.27
2018-08-04T13:23:26.881Z,18.53
2018-08-04T13:43:33.036Z,17.80
2018-08-04T14:03:45.796Z,9.33
2018-08-04T14:23:48.395Z,9.70
2018-08-04T14:44:05.667Z,11.77
2018-08-04T15:04:16.007Z,11.00
2018-08-04T15:24:24.355Z,15.20
2018-08-04T15:44:30.807Z,12.20
2018-08-04T16:04:39.498Z,10.57
2018-08-04T16:24:42.193Z,11.43
2018-08-04T16:44:51.075Z,12.10
2018-08-04T17:05:01.499Z,10.93
2018-08-04T17:25:04.171Z,10.93
2018-08-04T17:45:18.492Z,12.07
2018-08-04T18:26:07.089Z,11.33
2018-08-04T18:46:09.734Z,11.40
2018-08-04T18:58:00.527Z,11.60
2018-08-04T19:08:03.208Z,12.97
2018-08-04T19:18:06.580Z,12.17
2018-08-04T19:28:12.623Z,13.80
2018-08-04T19:38:19.952Z,14.00
2018-08-04T19:48:22.672Z,14.77
2018-08-04T19:58:32.015Z,16.17
2018-08-04T20:29:29.604Z,14.00
2018-08-04T20:39:32.185Z,14.53
2018-08-04T20:49:34.819Z,14.63
2018-08-04T20:59:37.380Z,14.77
2018-08-04T21:09:40.006Z,14.20
2018-08-04T21:19:43.098Z,14.87
2018-08-04T21:29:45.716Z,14.43
2018-08-04T21:39:58.303Z,16.40
2018-08-04T21:50:15.589Z,16.43
2018-08-04T22:00:18.159Z,15.67
2018-08-04T22:10:33.137Z,15.40
2018-08-04T22:20:35.625Z,13.80
2018-08-04T22:30:40.519Z,14.43
2018-08-04T22:40:43.118Z,14.20
2018-08-04T23:01:29.319Z,13.90
2018-08-04T23:11:41.530Z,15.83
2018-08-04T23:21:45.387Z,14.93
2018-08-04T23:31:49.119Z,15.70
2018-08-04T23:41:51.804Z,15.43
2018-08-04T23:51:54.509Z,15.50
